sensor_id;sensor_type;location;lat;lon;timestamp;pressure;altitude;pressure_sealevel;temperature;humidity
70833;BME280;58452;59.418;17.962;2023-04-22T00:01:30;101471.28;;;7.57;59.00
70833;BME280;58452;59.418;17.962;2023-04-22T00:03:55;101465.75;;;7.50;59.02
70833;BME280;58452;59.418;17.962;2023-04-22T00:06:21;101461.94;;;7.43;58.98
70833;BME280;58452;59.418;17.962;2023-04-22T00:08:46;101458.69;;;7.41;59.27
70833;BME280;58452;59.418;17.962;2023-04-22T00:11:12;101465.72;;;7.37;59.47
70833;BME280;58452;59.418;17.962;2023-04-22T00:13:37;101459.97;;;7.34;59.41
70833;BME280;58452;59.418;17.962;2023-04-22T00:16:03;101464.50;;;7.30;59.60
70833;BME280;58452;59.418;17.962;2023-04-22T00:18:29;101460.41;;;7.28;59.73
70833;BME280;58452;59.418;17.962;2023-04-22T00:20:54;101462.28;;;7.26;59.67
70833;BME280;58452;59.418;17.962;2023-04-22T00:23:20;101458.06;;;7.25;59.47
70833;BME280;58452;59.418;17.962;2023-04-22T00:25:45;101454.97;;;7.20;59.39
70833;BME280;58452;59.418;17.962;2023-04-22T00:28:11;101452.81;;;7.14;59.57
70833;BME280;58452;59.418;17.962;2023-04-22T00:30:36;101447.88;;;7.11;59.62
70833;BME280;58452;59.418;17.962;2023-04-22T00:33:02;101449.84;;;7.07;59.90
70833;BME280;58452;59.418;17.962;2023-04-22T00:35:28;101448.28;;;7.05;59.75
70833;BME280;58452;59.418;17.962;2023-04-22T00:37:53;101447.66;;;7.01;59.86
70833;BME280;58452;59.418;17.962;2023-04-22T00:40:19;101446.13;;;6.99;60.21
70833;BME280;58452;59.418;17.962;2023-04-22T00:42:45;101446.41;;;6.94;60.09
70833;BME280;58452;59.418;17.962;2023-04-22T00:45:11;101451.75;;;6.91;60.11
70833;BME280;58452;59.418;17.962;2023-04-22T00:47:40;101447.66;;;6.88;60.34
70833;BME280;58452;59.418;17.962;2023-04-22T00:50:06;101442.00;;;6.83;60.25
70833;BME280;58452;59.418;17.962;2023-04-22T00:52:32;101438.81;;;6.80;60.21
70833;BME280;58452;59.418;17.962;2023-04-22T00:54:58;101433.78;;;6.78;60.21
70833;BME280;58452;59.418;17.962;2023-04-22T00:57:24;101438.19;;;6.76;60.79
70833;BME280;58452;59.418;17.962;2023-04-22T00:59:49;101438.38;;;6.73;60.84
70833;BME280;58452;59.418;17.962;2023-04-22T01:02:15;101429.88;;;6.73;61.00
70833;BME280;58452;59.418;17.962;2023-04-22T01:04:41;101429.97;;;6.71;61.25
70833;BME280;58452;59.418;17.962;2023-04-22T01:07:07;101431.19;;;6.66;61.23
70833;BME280;58452;59.418;17.962;2023-04-22T01:09:32;101418.66;;;6.61;61.08
70833;BME280;58452;59.418;17.962;2023-04-22T01:11:58;101424.59;;;6.62;61.04
70833;BME280;58452;59.418;17.962;2023-04-22T01:14:23;101419.78;;;6.57;61.34
70833;BME280;58452;59.418;17.962;2023-04-22T01:16:50;101424.19;;;6.55;61.07
70833;BME280;58452;59.418;17.962;2023-04-22T01:19:18;101426.97;;;6.52;61.13
70833;BME280;58452;59.418;17.962;2023-04-22T01:21:44;101417.81;;;6.48;61.28
70833;BME280;58452;59.418;17.962;2023-04-22T01:24:11;101419.84;;;6.43;60.76
70833;BME280;58452;59.418;17.962;2023-04-22T01:26:37;101423.31;;;6.42;60.88
70833;BME280;58452;59.418;17.962;2023-04-22T01:29:03;101414.91;;;6.40;60.84
70833;BME280;58452;59.418;17.962;2023-04-22T01:31:29;101419.41;;;6.36;61.15
70833;BME280;58452;59.418;17.962;2023-04-22T01:33:55;101413.66;;;6.33;61.10
70833;BME280;58452;59.418;17.962;2023-04-22T01:36:21;101415.31;;;6.34;61.46
70833;BME280;58452;59.418;17.962;2023-04-22T01:38:46;101417.13;;;6.32;60.98
70833;BME280;58452;59.418;17.962;2023-04-22T01:41:12;101411.38;;;6.28;61.66
70833;BME280;58452;59.418;17.962;2023-04-22T01:43:38;101406.47;;;6.25;61.94
70833;BME280;58452;59.418;17.962;2023-04-22T01:46:04;101405.84;;;6.22;61.63
70833;BME280;58452;59.418;17.962;2023-04-22T01:48:30;101402.56;;;6.20;61.40
70833;BME280;58452;59.418;17.962;2023-04-22T01:50:56;101409.31;;;6.21;61.60
70833;BME280;58452;59.418;17.962;2023-04-22T01:53:21;101401.81;;;6.18;61.82
70833;BME280;58452;59.418;17.962;2023-04-22T01:55:47;101404.56;;;6.15;61.55
70833;BME280;58452;59.418;17.962;2023-04-22T01:58:12;101400.47;;;6.12;61.81
70833;BME280;58452;59.418;17.962;2023-04-22T02:00:38;101401.28;;;6.13;61.92
70833;BME280;58452;59.418;17.962;2023-04-22T02:03:03;101392.03;;;6.10;61.98
70833;BME280;58452;59.418;17.962;2023-04-22T02:05:29;101398.19;;;6.08;61.71
70833;BME280;58452;59.418;17.962;2023-04-22T02:07:54;101390.06;;;6.01;61.78
70833;BME280;58452;59.418;17.962;2023-04-22T02:10:20;101395.09;;;6.03;62.01
70833;BME280;58452;59.418;17.962;2023-04-22T02:12:46;101396.94;;;6.01;61.92
70833;BME280;58452;59.418;17.962;2023-04-22T02:15:11;101386.69;;;6.01;61.91
70833;BME280;58452;59.418;17.962;2023-04-22T02:17:37;101380.81;;;5.99;61.85
70833;BME280;58452;59.418;17.962;2023-04-22T02:20:04;101378.47;;;5.96;62.01
70833;BME280;58452;59.418;17.962;2023-04-22T02:22:31;101370.44;;;5.87;61.78
70833;BME280;58452;59.418;17.962;2023-04-22T02:24:56;101372.06;;;5.88;61.74
70833;BME280;58452;59.418;17.962;2023-04-22T02:27:22;101372.25;;;5.85;62.43
70833;BME280;58452;59.418;17.962;2023-04-22T02:29:47;101368.16;;;5.83;62.14
70833;BME280;58452;59.418;17.962;2023-04-22T02:32:13;101372.44;;;5.82;61.67
70833;BME280;58452;59.418;17.962;2023-04-22T02:34:41;101371.81;;;5.79;62.18
70833;BME280;58452;59.418;17.962;2023-04-22T02:37:06;101373.53;;;5.78;62.29
70833;BME280;58452;59.418;17.962;2023-04-22T02:39:32;101362.66;;;5.75;62.57
70833;BME280;58452;59.418;17.962;2023-04-22T02:41:57;101365.44;;;5.72;62.23
70833;BME280;58452;59.418;17.962;2023-04-22T02:44:23;101361.28;;;5.69;62.63
70833;BME280;58452;59.418;17.962;2023-04-22T02:46:48;101361.50;;;5.66;61.99
70833;BME280;58452;59.418;17.962;2023-04-22T02:49:14;101357.38;;;5.64;62.16
70833;BME280;58452;59.418;17.962;2023-04-22T02:51:39;101360.03;;;5.62;62.57
70833;BME280;58452;59.418;17.962;2023-04-22T02:54:05;101358.41;;;5.61;62.60
70833;BME280;58452;59.418;17.962;2023-04-22T02:56:30;101356.75;;;5.60;62.24
70833;BME280;58452;59.418;17.962;2023-04-22T02:58:56;101355.31;;;5.56;61.79
70833;BME280;58452;59.418;17.962;2023-04-22T03:01:21;101356.22;;;5.55;61.95
70833;BME280;58452;59.418;17.962;2023-04-22T03:03:47;101353.84;;;5.52;62.25
70833;BME280;58452;59.418;17.962;2023-04-22T03:06:12;101350.56;;;5.50;62.93
70833;BME280;58452;59.418;17.962;2023-04-22T03:08:37;101350.72;;;5.47;62.43
70833;BME280;58452;59.418;17.962;2023-04-22T03:11:03;101344.97;;;5.43;62.65
70833;BME280;58452;59.418;17.962;2023-04-22T03:13:29;101346.00;;;5.41;62.42
70833;BME280;58452;59.418;17.962;2023-04-22T03:15:54;101343.50;;;5.39;63.19
70833;BME280;58452;59.418;17.962;2023-04-22T03:18:20;101341.97;;;5.37;62.87
70833;BME280;58452;59.418;17.962;2023-04-22T03:20:46;101336.34;;;5.32;62.92
70833;BME280;58452;59.418;17.962;2023-04-22T03:23:11;101340.00;;;5.28;62.92
70833;BME280;58452;59.418;17.962;2023-04-22T03:25:37;101338.34;;;5.27;62.90
70833;BME280;58452;59.418;17.962;2023-04-22T03:28:03;101340.97;;;5.25;62.81
70833;BME280;58452;59.418;17.962;2023-04-22T03:30:28;101337.06;;;5.20;62.85
70833;BME280;58452;59.418;17.962;2023-04-22T03:32:55;101337.06;;;5.20;62.97
70833;BME280;58452;59.418;17.962;2023-04-22T03:35:20;101332.13;;;5.17;63.38
70833;BME280;58452;59.418;17.962;2023-04-22T03:37:46;101328.84;;;5.15;63.02
70833;BME280;58452;59.418;17.962;2023-04-22T03:40:11;101332.28;;;5.14;63.09
70833;BME280;58452;59.418;17.962;2023-04-22T03:42:37;101324.63;;;5.14;63.41
70833;BME280;58452;59.418;17.962;2023-04-22T03:45:02;101323.91;;;5.12;63.78
70833;BME280;58452;59.418;17.962;2023-04-22T03:47:28;101325.56;;;5.13;63.71
70833;BME280;58452;59.418;17.962;2023-04-22T03:49:53;101316.94;;;5.14;62.98
70833;BME280;58452;59.418;17.962;2023-04-22T03:52:19;101323.72;;;5.15;63.29
70833;BME280;58452;59.418;17.962;2023-04-22T03:54:45;101316.03;;;5.15;63.25
70833;BME280;58452;59.418;17.962;2023-04-22T03:57:10;101310.03;;;5.16;64.03
70833;BME280;58452;59.418;17.962;2023-04-22T03:59:35;101316.03;;;5.15;64.17
70833;BME280;58452;59.418;17.962;2023-04-22T04:02:01;101307.38;;;5.17;63.51
70833;BME280;58452;59.418;17.962;2023-04-22T04:04:26;101311.47;;;5.20;63.63
70833;BME280;58452;59.418;17.962;2023-04-22T04:06:54;101307.19;;;5.20;63.69
70833;BME280;58452;59.418;17.962;2023-04-22T04:09:19;101309.44;;;5.25;63.79
70833;BME280;58452;59.418;17.962;2023-04-22T04:11:45;101304.25;;;5.26;63.92
70833;BME280;58452;59.418;17.962;2023-04-22T04:14:10;101307.34;;;5.31;64.01
70833;BME280;58452;59.418;17.962;2023-04-22T04:16:36;101307.06;;;5.36;64.16
70833;BME280;58452;59.418;17.962;2023-04-22T04:19:02;101305.03;;;5.41;63.40
70833;BME280;58452;59.418;17.962;2023-04-22T04:21:28;101303.94;;;5.45;63.63
70833;BME280;58452;59.418;17.962;2023-04-22T04:23:53;101300.28;;;5.49;63.76
70833;BME280;58452;59.418;17.962;2023-04-22T04:26:19;101302.44;;;5.55;63.94
70833;BME280;58452;59.418;17.962;2023-04-22T04:28:45;101304.72;;;5.60;63.94
70833;BME280;58452;59.418;17.962;2023-04-22T04:31:11;101303.50;;;5.65;64.00
70833;BME280;58452;59.418;17.962;2023-04-22T04:33:37;101300.47;;;5.73;63.88
70833;BME280;58452;59.418;17.962;2023-04-22T04:36:04;101290.84;;;5.76;64.11
70833;BME280;58452;59.418;17.962;2023-04-22T04:38:29;101295.59;;;5.82;63.89
70833;BME280;58452;59.418;17.962;2023-04-22T04:40:55;101291.75;;;5.89;64.24
70833;BME280;58452;59.418;17.962;2023-04-22T04:43:20;101302.34;;;5.98;64.66
70833;BME280;58452;59.418;17.962;2023-04-22T04:45:50;101295.91;;;6.05;63.87
70833;BME280;58452;59.418;17.962;2023-04-22T04:48:17;101298.78;;;6.13;64.16
70833;BME280;58452;59.418;17.962;2023-04-22T04:50:44;101298.19;;;6.22;64.03
70833;BME280;58452;59.418;17.962;2023-04-22T04:53:10;101298.50;;;6.30;64.36
70833;BME280;58452;59.418;17.962;2023-04-22T04:55:36;101293.59;;;6.39;64.08
70833;BME280;58452;59.418;17.962;2023-04-22T04:58:02;101298.00;;;6.50;64.05
70833;BME280;58452;59.418;17.962;2023-04-22T05:00:28;101298.84;;;6.63;63.66
70833;BME280;58452;59.418;17.962;2023-04-22T05:02:54;101299.03;;;6.73;63.22
70833;BME280;58452;59.418;17.962;2023-04-22T05:05:19;101297.41;;;6.84;63.25
70833;BME280;58452;59.418;17.962;2023-04-22T05:07:44;101302.53;;;6.84;62.41
70833;BME280;58452;59.418;17.962;2023-04-22T05:10:10;101299.63;;;7.02;61.95
70833;BME280;58452;59.418;17.962;2023-04-22T05:12:36;101295.63;;;7.10;61.23
70833;BME280;58452;59.418;17.962;2023-04-22T05:15:01;101300.84;;;7.21;60.65
70833;BME280;58452;59.418;17.962;2023-04-22T05:17:27;101295.91;;;7.18;60.50
70833;BME280;58452;59.418;17.962;2023-04-22T05:19:53;101296.59;;;7.33;60.26
70833;BME280;58452;59.418;17.962;2023-04-22T05:22:18;101293.38;;;7.42;60.00
70833;BME280;58452;59.418;17.962;2023-04-22T05:24:44;101301.09;;;7.42;59.81
70833;BME280;58452;59.418;17.962;2023-04-22T05:27:09;101295.59;;;7.59;59.65
70833;BME280;58452;59.418;17.962;2023-04-22T05:29:35;101297.31;;;7.82;58.82
70833;BME280;58452;59.418;17.962;2023-04-22T05:32:00;101289.00;;;8.03;58.45
70833;BME280;58452;59.418;17.962;2023-04-22T05:34:26;101284.13;;;8.22;58.49
70833;BME280;58452;59.418;17.962;2023-04-22T05:36:51;101280.28;;;8.40;57.91
70833;BME280;58452;59.418;17.962;2023-04-22T05:39:17;101281.66;;;8.55;56.74
70833;BME280;58452;59.418;17.962;2023-04-22T05:41:43;101281.47;;;8.69;56.36
70833;BME280;58452;59.418;17.962;2023-04-22T05:44:08;101275.38;;;8.93;56.45
70833;BME280;58452;59.418;17.962;2023-04-22T05:46:34;101277.50;;;9.10;55.97
70833;BME280;58452;59.418;17.962;2023-04-22T05:48:59;101279.06;;;9.33;55.14
70833;BME280;58452;59.418;17.962;2023-04-22T05:51:25;101272.47;;;9.51;54.36
70833;BME280;58452;59.418;17.962;2023-04-22T05:53:50;101268.81;;;9.65;54.58
70833;BME280;58452;59.418;17.962;2023-04-22T05:56:16;101259.16;;;9.78;54.18
70833;BME280;58452;59.418;17.962;2023-04-22T05:58:41;101257.91;;;9.93;54.06
70833;BME280;58452;59.418;17.962;2023-04-22T06:01:08;101259.63;;;10.04;53.62
70833;BME280;58452;59.418;17.962;2023-04-22T06:03:33;101258.28;;;10.09;53.01
70833;BME280;58452;59.418;17.962;2023-04-22T06:05:59;101255.28;;;10.04;52.98
70833;BME280;58452;59.418;17.962;2023-04-22T06:08:25;101245.63;;;10.17;52.89
70833;BME280;58452;59.418;17.962;2023-04-22T06:10:51;101249.00;;;10.39;52.77
70833;BME280;58452;59.418;17.962;2023-04-22T06:13:16;101255.28;;;10.46;52.65
70833;BME280;58452;59.418;17.962;2023-04-22T06:15:42;101252.94;;;10.63;52.18
70833;BME280;58452;59.418;17.962;2023-04-22T06:18:07;101247.03;;;10.82;51.83
70833;BME280;58452;59.418;17.962;2023-04-22T06:20:33;101245.16;;;10.94;51.70
70833;BME280;58452;59.418;17.962;2023-04-22T06:23:00;101239.47;;;11.00;51.14
70833;BME280;58452;59.418;17.962;2023-04-22T06:25:25;101239.78;;;11.16;51.46
70833;BME280;58452;59.418;17.962;2023-04-22T06:27:51;101238.16;;;11.24;51.16
70833;BME280;58452;59.418;17.962;2023-04-22T06:30:16;101240.63;;;11.36;50.85
70833;BME280;58452;59.418;17.962;2023-04-22T06:32:42;101231.81;;;11.57;50.42
70833;BME280;58452;59.418;17.962;2023-04-22T06:35:07;101233.59;;;11.76;50.28
70833;BME280;58452;59.418;17.962;2023-04-22T06:37:33;101232.44;;;11.31;50.79
70833;BME280;58452;59.418;17.962;2023-04-22T06:39:58;101226.22;;;11.52;50.31
70833;BME280;58452;59.418;17.962;2023-04-22T06:42:24;101216.81;;;11.70;49.93
70833;BME280;58452;59.418;17.962;2023-04-22T06:44:49;101216.31;;;11.86;50.58
70833;BME280;58452;59.418;17.962;2023-04-22T06:47:15;101217.22;;;12.04;49.42
70833;BME280;58452;59.418;17.962;2023-04-22T06:49:40;101218.84;;;12.15;49.23
70833;BME280;58452;59.418;17.962;2023-04-22T06:52:07;101210.22;;;12.34;49.17
70833;BME280;58452;59.418;17.962;2023-04-22T06:54:32;101212.72;;;12.53;49.17
70833;BME280;58452;59.418;17.962;2023-04-22T06:56:58;101209.84;;;12.56;48.63
70833;BME280;58452;59.418;17.962;2023-04-22T06:59:23;101206.13;;;12.68;47.95
70833;BME280;58452;59.418;17.962;2023-04-22T07:01:49;101207.72;;;12.79;47.96
70833;BME280;58452;59.418;17.962;2023-04-22T07:04:14;101204.63;;;12.93;47.53
70833;BME280;58452;59.418;17.962;2023-04-22T07:06:40;101204.78;;;12.91;47.74
70833;BME280;58452;59.418;17.962;2023-04-22T07:09:05;101200.50;;;13.00;47.33
70833;BME280;58452;59.418;17.962;2023-04-22T07:11:30;101201.72;;;12.78;47.91
70833;BME280;58452;59.418;17.962;2023-04-22T07:13:57;101196.25;;;12.99;47.52
70833;BME280;58452;59.418;17.962;2023-04-22T07:16:22;101193.59;;;12.91;47.09
70833;BME280;58452;59.418;17.962;2023-04-22T07:18:47;101187.44;;;12.92;47.31
70833;BME280;58452;59.418;17.962;2023-04-22T07:21:13;101188.25;;;12.92;47.12
70833;BME280;58452;59.418;17.962;2023-04-22T07:23:38;101189.38;;;13.17;46.98
70833;BME280;58452;59.418;17.962;2023-04-22T07:26:04;101181.09;;;13.31;46.84
70833;BME280;58452;59.418;17.962;2023-04-22T07:28:29;101187.38;;;13.46;45.82
70833;BME280;58452;59.418;17.962;2023-04-22T07:30:55;101180.16;;;13.58;45.94
70833;BME280;58452;59.418;17.962;2023-04-22T07:33:20;101175.56;;;13.69;46.12
70833;BME280;58452;59.418;17.962;2023-04-22T07:35:47;101180.50;;;13.81;45.64
70833;BME280;58452;59.418;17.962;2023-04-22T07:38:12;101170.81;;;13.83;46.56
70833;BME280;58452;59.418;17.962;2023-04-22T07:40:38;101174.09;;;13.93;45.55
70833;BME280;58452;59.418;17.962;2023-04-22T07:43:03;101166.63;;;13.90;45.69
70833;BME280;58452;59.418;17.962;2023-04-22T07:45:30;101169.13;;;13.99;45.33
70833;BME280;58452;59.418;17.962;2023-04-22T07:47:56;101164.84;;;14.16;45.19
70833;BME280;58452;59.418;17.962;2023-04-22T07:50:21;101161.34;;;14.33;44.45
70833;BME280;58452;59.418;17.962;2023-04-22T07:52:47;101158.47;;;14.36;43.89
70833;BME280;58452;59.418;17.962;2023-04-22T07:55:12;101161.72;;;14.38;44.14
70833;BME280;58452;59.418;17.962;2023-04-22T07:57:37;101159.84;;;14.48;44.74
70833;BME280;58452;59.418;17.962;2023-04-22T08:00:07;101159.84;;;14.48;43.44
70833;BME280;58452;59.418;17.962;2023-04-22T08:02:33;101156.78;;;14.61;43.69
70833;BME280;58452;59.418;17.962;2023-04-22T08:04:59;101156.03;;;14.77;43.69
70833;BME280;58452;59.418;17.962;2023-04-22T08:07:25;101148.78;;;14.96;42.86
70833;BME280;58452;59.418;17.962;2023-04-22T08:09:51;101150.22;;;14.91;42.86
70833;BME280;58452;59.418;17.962;2023-04-22T08:12:17;101150.56;;;14.96;42.53
70833;BME280;58452;59.418;17.962;2023-04-22T08:14:42;101147.63;;;14.99;42.65
70833;BME280;58452;59.418;17.962;2023-04-22T08:17:08;101149.94;;;15.10;41.86
70833;BME280;58452;59.418;17.962;2023-04-22T08:19:34;101145.72;;;15.33;41.66
70833;BME280;58452;59.418;17.962;2023-04-22T08:21:59;101149.44;;;15.39;41.25
70833;BME280;58452;59.418;17.962;2023-04-22T08:24:25;101139.88;;;15.39;41.63
70833;BME280;58452;59.418;17.962;2023-04-22T08:26:50;101140.88;;;15.62;40.81
70833;BME280;58452;59.418;17.962;2023-04-22T08:29:16;101136.28;;;15.81;40.67
70833;BME280;58452;59.418;17.962;2023-04-22T08:31:41;101135.13;;;15.91;40.81
70833;BME280;58452;59.418;17.962;2023-04-22T08:34:07;101133.28;;;16.08;39.90
70833;BME280;58452;59.418;17.962;2023-04-22T08:36:33;101134.22;;;16.23;39.01
70833;BME280;58452;59.418;17.962;2023-04-22T08:38:59;101121.16;;;16.31;39.99
70833;BME280;58452;59.418;17.962;2023-04-22T08:41:25;101122.78;;;16.32;38.70
70833;BME280;58452;59.418;17.962;2023-04-22T08:43:51;101121.59;;;16.43;39.11
70833;BME280;58452;59.418;17.962;2023-04-22T08:46:17;101124.25;;;16.27;39.15
70833;BME280;58452;59.418;17.962;2023-04-22T08:48:49;101127.47;;;15.90;39.33
70833;BME280;58452;59.418;17.962;2023-04-22T08:51:16;101124.34;;;16.10;39.12
70833;BME280;58452;59.418;17.962;2023-04-22T08:53:42;101117.25;;;16.35;38.69
70833;BME280;58452;59.418;17.962;2023-04-22T08:56:12;101117.78;;;16.14;38.84
70833;BME280;58452;59.418;17.962;2023-04-22T08:58:40;101112.06;;;16.27;38.24
70833;BME280;58452;59.418;17.962;2023-04-22T09:01:07;101107.75;;;16.42;38.54
70833;BME280;58452;59.418;17.962;2023-04-22T09:03:38;101108.22;;;16.46;38.07
70833;BME280;58452;59.418;17.962;2023-04-22T09:06:04;101103.44;;;16.66;37.73
70833;BME280;58452;59.418;17.962;2023-04-22T09:08:33;101101.69;;;16.81;37.39
70833;BME280;58452;59.418;17.962;2023-04-22T09:10:58;101101.19;;;16.54;37.81
70833;BME280;58452;59.418;17.962;2023-04-22T09:13:25;101097.41;;;16.65;38.02
70833;BME280;58452;59.418;17.962;2023-04-22T09:15:51;101101.16;;;16.63;37.40
70833;BME280;58452;59.418;17.962;2023-04-22T09:18:17;101090.72;;;16.63;37.81
70833;BME280;58452;59.418;17.962;2023-04-22T09:20:46;101095.47;;;16.59;37.27
70833;BME280;58452;59.418;17.962;2023-04-22T09:23:12;101086.19;;;16.87;37.40
70833;BME280;58452;59.418;17.962;2023-04-22T09:25:38;101086.16;;;17.10;36.86
70833;BME280;58452;59.418;17.962;2023-04-22T09:28:04;101081.13;;;17.31;36.00
70833;BME280;58452;59.418;17.962;2023-04-22T09:30:32;101081.47;;;17.43;37.04
70833;BME280;58452;59.418;17.962;2023-04-22T09:33:00;101086.44;;;17.52;36.81
70833;BME280;58452;59.418;17.962;2023-04-22T09:35:34;101084.34;;;17.71;36.38
70833;BME280;58452;59.418;17.962;2023-04-22T09:38:02;101073.00;;;17.93;34.84
70833;BME280;58452;59.418;17.962;2023-04-22T09:40:29;101072.78;;;18.09;35.35
70833;BME280;58452;59.418;17.962;2023-04-22T09:42:57;101067.38;;;18.25;33.93
70833;BME280;58452;59.418;17.962;2023-04-22T09:45:28;101066.28;;;18.34;34.32
70833;BME280;58452;59.418;17.962;2023-04-22T09:47:55;101066.41;;;18.47;33.95
70833;BME280;58452;59.418;17.962;2023-04-22T09:50:24;101059.19;;;18.49;34.02
70833;BME280;58452;59.418;17.962;2023-04-22T09:53:04;101064.81;;;18.68;33.75
70833;BME280;58452;59.418;17.962;2023-04-22T09:55:33;101054.84;;;18.57;33.87
70833;BME280;58452;59.418;17.962;2023-04-22T09:58:05;101056.66;;;18.05;34.09
70833;BME280;58452;59.418;17.962;2023-04-22T10:00:31;101059.13;;;17.78;34.69
70833;BME280;58452;59.418;17.962;2023-04-22T10:02:56;101055.69;;;17.63;34.99
70833;BME280;58452;59.418;17.962;2023-04-22T10:05:22;101049.06;;;17.75;35.06
70833;BME280;58452;59.418;17.962;2023-04-22T10:07:47;101042.09;;;17.96;35.07
70833;BME280;58452;59.418;17.962;2023-04-22T10:10:13;101046.41;;;18.19;34.00
70833;BME280;58452;59.418;17.962;2023-04-22T10:12:39;101035.03;;;18.47;34.27
70833;BME280;58452;59.418;17.962;2023-04-22T10:15:05;101023.63;;;18.70;33.94
70833;BME280;58452;59.418;17.962;2023-04-22T10:17:33;101025.66;;;18.53;32.62
70833;BME280;58452;59.418;17.962;2023-04-22T10:20:02;101031.88;;;18.16;30.55
70833;BME280;58452;59.418;17.962;2023-04-22T10:22:30;101030.28;;;18.51;31.91
70833;BME280;58452;59.418;17.962;2023-04-22T10:24:57;101017.34;;;18.85;31.80
70833;BME280;58452;59.418;17.962;2023-04-22T10:27:23;101009.88;;;19.10;32.06
70833;BME280;58452;59.418;17.962;2023-04-22T10:29:49;101020.94;;;19.33;31.35
70833;BME280;58452;59.418;17.962;2023-04-22T10:34:46;101009.78;;;19.52;30.11
70833;BME280;58452;59.418;17.962;2023-04-22T10:37:14;101006.94;;;19.47;30.50
70833;BME280;58452;59.418;17.962;2023-04-22T10:39:42;100999.00;;;19.69;31.69
70833;BME280;58452;59.418;17.962;2023-04-22T10:42:27;101002.25;;;19.77;30.98
70833;BME280;58452;59.418;17.962;2023-04-22T10:45:00;101002.47;;;19.41;30.05
70833;BME280;58452;59.418;17.962;2023-04-22T10:47:31;100988.00;;;19.52;29.62
70833;BME280;58452;59.418;17.962;2023-04-22T10:52:53;100989.50;;;19.68;33.52
70833;BME280;58452;59.418;17.962;2023-04-22T10:55:19;100986.63;;;20.04;29.52
70833;BME280;58452;59.418;17.962;2023-04-22T10:57:47;100981.44;;;20.23;29.36
70833;BME280;58452;59.418;17.962;2023-04-22T11:00:21;100984.25;;;20.22;29.73
70833;BME280;58452;59.418;17.962;2023-04-22T11:02:56;100978.09;;;20.42;29.04
70833;BME280;58452;59.418;17.962;2023-04-22T11:05:31;100969.91;;;20.11;29.97
70833;BME280;58452;59.418;17.962;2023-04-22T11:08:12;100972.03;;;20.35;28.34
70833;BME280;58452;59.418;17.962;2023-04-22T11:10:39;100964.56;;;20.59;31.25
70833;BME280;58452;59.418;17.962;2023-04-22T11:13:08;100958.72;;;20.83;29.68
70833;BME280;58452;59.418;17.962;2023-04-22T11:15:35;100963.19;;;20.76;29.94
70833;BME280;58452;59.418;17.962;2023-04-22T11:18:01;100949.03;;;20.90;29.14
70833;BME280;58452;59.418;17.962;2023-04-22T11:20:28;100956.50;;;21.13;29.26
70833;BME280;58452;59.418;17.962;2023-04-22T11:22:56;100952.47;;;20.84;28.68
70833;BME280;58452;59.418;17.962;2023-04-22T11:25:23;100955.47;;;20.41;30.04
70833;BME280;58452;59.418;17.962;2023-04-22T11:27:49;100957.66;;;20.25;29.56
70833;BME280;58452;59.418;17.962;2023-04-22T11:30:17;100955.41;;;20.22;29.45
70833;BME280;58452;59.418;17.962;2023-04-22T11:32:57;100951.28;;;19.80;29.86
70833;BME280;58452;59.418;17.962;2023-04-22T11:37:54;100936.94;;;20.50;28.90
70833;BME280;58452;59.418;17.962;2023-04-22T11:40:22;100931.47;;;20.44;29.75
70833;BME280;58452;59.418;17.962;2023-04-22T11:42:51;100929.88;;;20.30;29.16
70833;BME280;58452;59.418;17.962;2023-04-22T11:45:17;100926.16;;;20.05;30.54
70833;BME280;58452;59.418;17.962;2023-04-22T11:47:42;100928.22;;;20.23;29.60
70833;BME280;58452;59.418;17.962;2023-04-22T11:50:11;100923.22;;;20.28;29.78
70833;BME280;58452;59.418;17.962;2023-04-22T11:55:19;100918.97;;;20.60;28.54
70833;BME280;58452;59.418;17.962;2023-04-22T11:57:51;100914.56;;;20.54;28.89
70833;BME280;58452;59.418;17.962;2023-04-22T12:00:17;100910.91;;;20.87;28.95
70833;BME280;58452;59.418;17.962;2023-04-22T12:02:42;100899.53;;;21.20;28.70
70833;BME280;58452;59.418;17.962;2023-04-22T12:05:19;100909.31;;;21.57;28.27
70833;BME280;58452;59.418;17.962;2023-04-22T12:07:44;100898.09;;;21.75;27.59
70833;BME280;58452;59.418;17.962;2023-04-22T12:10:10;100900.56;;;21.63;28.52
70833;BME280;58452;59.418;17.962;2023-04-22T12:12:38;100885.47;;;21.97;28.13
70833;BME280;58452;59.418;17.962;2023-04-22T12:15:08;100887.53;;;22.44;30.24
70833;BME280;58452;59.418;17.962;2023-04-22T12:17:34;100882.81;;;22.53;27.36
70833;BME280;58452;59.418;17.962;2023-04-22T12:20:00;100897.00;;;21.89;27.67
70833;BME280;58452;59.418;17.962;2023-04-22T12:22:27;100892.84;;;21.30;28.23
70833;BME280;58452;59.418;17.962;2023-04-22T12:24:52;100889.97;;;21.83;27.92
70833;BME280;58452;59.418;17.962;2023-04-22T12:27:19;100884.16;;;21.30;27.73
70833;BME280;58452;59.418;17.962;2023-04-22T12:29:54;100881.81;;;20.89;28.08
70833;BME280;58452;59.418;17.962;2023-04-22T12:32:21;100879.03;;;20.84;28.88
70833;BME280;58452;59.418;17.962;2023-04-22T12:34:47;100885.03;;;21.11;28.75
70833;BME280;58452;59.418;17.962;2023-04-22T12:37:13;100874.66;;;21.29;28.64
70833;BME280;58452;59.418;17.962;2023-04-22T12:39:39;100867.44;;;21.62;28.17
70833;BME280;58452;59.418;17.962;2023-04-22T12:42:05;100870.03;;;21.69;28.07
70833;BME280;58452;59.418;17.962;2023-04-22T12:44:32;100863.06;;;21.50;28.57
70833;BME280;58452;59.418;17.962;2023-04-22T12:46:57;100871.34;;;21.91;27.67
70833;BME280;58452;59.418;17.962;2023-04-22T12:49:22;100864.50;;;22.39;28.29
70833;BME280;58452;59.418;17.962;2023-04-22T12:51:48;100859.16;;;22.46;27.00